Airfield :
LOGIN :

Register | Disclaimer

   EN    FR    IT 

 










Legend :    VFR   Marginal VFR   IFR   Intensive IFR   Very Intensive IFR
Visi :
Ceiling :
>= 8 km
>= 3000ft
5 to 8 km
1000 to 3000 ft
1500m to 5 km
500 to 1000 ft
800 to 1500m
200 to 500 ft
< 800m
< 200 ft
Symbols :   Thunderstorms  Fog  Heavy snow  Heavy precipitations  Wind > 20 kt
SIGMETs :     Misc.  Thunderstorms  Icing  Turbulence  Mountain Waves  Volcanic Ashes







- Airport Elevation : 1487 ft
- IATA code : MUC


EDDM - München Franz Josef Strauss

CURRENT METAR :
  • 251950Z 30004KT 270V330 CAVOK 17/08 Q1014 NOSIG

EXPIRED METARs :
  • 251920Z 31003KT 260V340 CAVOK 17/08 Q1014 NOSIG
  • 251850Z 33005KT CAVOK 17/08 Q1013 NOSIG
  • 251820Z 33006KT 300V010 CAVOK 18/08 Q1013 NOSIG
  • 251750Z 31010KT 270V340 9999 VCSH NSC 19/07 Q1012 NOSIG
  • 251720Z 32013KT 290V350 9999 VCSH NSC 20/08 Q1012 NOSIG

TAF TAF EDDM
Valid from the 25 at 18:00 until the 27 at 00:00 UTC


251700Z 2518/2624 28007KT 9999 FEW045
BECMG 2609/2611 26012KT
TEMPO 2611/2616 28015G25KT
No reported NOTAMs for that airfield.



MET'MAP, your aeronautical weather chart ! - Copyright ORBIFLY December 2007 - Disclaimer

ORBIFLY MET'MAP TEAM :

Programming & Development : Alexandra Zaïnal
Concept & Development : Baudouin d'Aumeries
Co-Development & Prog : Marc-Olivier Méhu
Technical & hardware support : Manuel Goepfert

Contact : metmap@orbifly.com




SOURCES & CREDITS :

   NOAA